createdAt,value
2022-11-09T00:00:50.293Z,3.40
2022-11-09T00:03:18.222Z,3.00
2022-11-09T00:05:55.809Z,3.08
2022-11-09T00:08:23.216Z,3.58
2022-11-09T00:10:50.584Z,3.85
2022-11-09T00:13:18.373Z,4.05
2022-11-09T00:15:45.998Z,3.08
2022-11-09T00:18:13.260Z,4.00
2022-11-09T00:20:46.942Z,3.65
2022-11-09T00:23:16.635Z,4.03
2022-11-09T00:25:44.328Z,3.42
2022-11-09T00:28:11.752Z,3.80
2022-11-09T00:30:39.740Z,4.07
2022-11-09T00:33:07.316Z,3.50
2022-11-09T00:35:38.152Z,3.40
2022-11-09T00:38:05.474Z,3.63
2022-11-09T00:40:32.743Z,3.20
2022-11-09T00:43:00.033Z,3.33
2022-11-09T00:45:27.250Z,4.05
2022-11-09T00:47:54.792Z,2.97
2022-11-09T00:50:22.104Z,3.47
2022-11-09T00:52:49.461Z,3.40
2022-11-09T00:55:16.772Z,3.47
2022-11-09T00:57:44.042Z,2.95
2022-11-09T01:00:11.903Z,3.20
2022-11-09T01:02:39.207Z,3.60
2022-11-09T01:05:07.658Z,3.60
2022-11-09T01:07:34.875Z,3.15
2022-11-09T01:10:02.107Z,2.75
2022-11-09T01:12:29.304Z,3.53
2022-11-09T01:14:56.564Z,2.75
2022-11-09T01:17:24.324Z,2.63
2022-11-09T01:19:51.749Z,3.05
2022-11-09T01:22:21.822Z,3.28
2022-11-09T01:24:49.088Z,3.58
2022-11-09T01:27:16.964Z,2.80
2022-11-09T01:29:44.192Z,3.08
2022-11-09T01:32:11.649Z,2.72
2022-11-09T01:34:40.542Z,2.85
2022-11-09T01:37:07.769Z,2.95
2022-11-09T01:39:35.039Z,3.78
2022-11-09T01:42:03.461Z,2.40
2022-11-09T01:44:30.831Z,3.25
2022-11-09T01:47:04.851Z,3.15
2022-11-09T01:49:41.071Z,3.00
2022-11-09T01:52:25.736Z,3.20
2022-11-09T01:55:00.519Z,3.15
2022-11-09T01:57:33.995Z,2.67
2022-11-09T02:00:05.902Z,2.95
2022-11-09T02:02:44.468Z,3.13
2022-11-09T02:05:14.979Z,2.85
2022-11-09T02:07:42.954Z,2.53
2022-11-09T02:10:29.924Z,2.72
2022-11-09T02:12:59.674Z,3.08
2022-11-09T02:15:27.918Z,2.72
2022-11-09T02:17:56.697Z,3.10
2022-11-09T02:20:24.869Z,2.55
2022-11-09T02:22:52.451Z,2.97
2022-11-09T02:25:21.721Z,3.40
2022-11-09T02:27:50.434Z,2.80
2022-11-09T02:30:19.303Z,3.40
2022-11-09T02:32:48.604Z,2.58
2022-11-09T02:35:15.945Z,2.40
2022-11-09T02:37:50.171Z,2.92
2022-11-09T02:40:23.102Z,2.80
2022-11-09T02:42:50.525Z,2.33
2022-11-09T02:45:17.827Z,2.33
2022-11-09T02:47:45.201Z,2.22
2022-11-09T02:50:12.497Z,2.38
2022-11-09T02:52:39.871Z,2.53
2022-11-09T02:55:07.481Z,2.47
2022-11-09T02:57:35.444Z,2.20
2022-11-09T03:00:04.727Z,2.10
2022-11-09T03:02:32.143Z,2.08
2022-11-09T03:04:59.426Z,1.42
2022-11-09T03:07:27.227Z,2.05
2022-11-09T03:09:55.184Z,2.08
2022-11-09T03:12:30.351Z,2.10
2022-11-09T03:15:08.017Z,1.75
2022-11-09T03:17:36.479Z,1.77
2022-11-09T03:20:04.804Z,1.60
2022-11-09T03:22:32.379Z,1.63
2022-11-09T03:24:59.753Z,1.02
2022-11-09T03:27:27.086Z,1.55
2022-11-09T03:29:54.345Z,1.65
2022-11-09T03:32:21.970Z,1.33
2022-11-09T03:34:51.499Z,1.92
2022-11-09T03:37:19.535Z,1.60
2022-11-09T03:39:47.037Z,1.45
2022-11-09T03:42:14.215Z,1.10
2022-11-09T03:44:41.898Z,1.30
2022-11-09T03:47:09.354Z,1.60
2022-11-09T03:49:36.577Z,1.10
2022-11-09T03:52:04.590Z,1.50
2022-11-09T03:54:32.300Z,1.40
2022-11-09T03:56:59.565Z,1.13
2022-11-09T03:59:26.832Z,1.75
2022-11-09T04:01:54.305Z,1.42
2022-11-09T04:04:21.530Z,0.80
2022-11-09T04:06:48.751Z,1.35
2022-11-09T04:09:16.063Z,1.02
2022-11-09T04:11:43.334Z,1.50
2022-11-09T04:14:10.676Z,1.38
2022-11-09T04:16:38.768Z,1.30
2022-11-09T04:19:06.014Z,1.30
2022-11-09T04:21:34.141Z,1.63
2022-11-09T04:24:01.399Z,1.35
2022-11-09T04:26:28.575Z,1.55
2022-11-09T04:28:55.976Z,1.15
2022-11-09T04:31:27.760Z,1.40
2022-11-09T04:33:55.792Z,1.50
2022-11-09T04:36:23.173Z,1.15
2022-11-09T04:38:50.411Z,1.25
2022-11-09T04:41:17.682Z,1.13
2022-11-09T04:43:45.047Z,1.20
2022-11-09T04:46:12.338Z,1.15
2022-11-09T04:48:39.688Z,1.30
2022-11-09T04:51:10.690Z,1.05
2022-11-09T04:53:38.857Z,1.45
2022-11-09T04:56:06.779Z,1.75
2022-11-09T04:58:34.592Z,1.63
2022-11-09T05:01:06.707Z,1.17
2022-11-09T05:03:34.449Z,1.55
2022-11-09T05:06:21.839Z,1.60
2022-11-09T05:08:49.567Z,1.60
2022-11-09T05:11:17.159Z,1.55
2022-11-09T05:13:44.473Z,1.65
2022-11-09T05:16:12.024Z,1.60
2022-11-09T05:18:39.463Z,1.58
2022-11-09T05:21:06.880Z,1.70
2022-11-09T05:23:52.575Z,1.77
2022-11-09T05:26:19.835Z,1.67
2022-11-09T05:28:47.103Z,2.03
2022-11-09T05:31:14.517Z,2.17
2022-11-09T05:33:41.778Z,2.13
2022-11-09T05:36:09.072Z,1.80
2022-11-09T05:38:36.293Z,1.85
2022-11-09T05:41:03.472Z,1.50
2022-11-09T05:43:30.882Z,2.03
2022-11-09T05:46:01.355Z,2.05
2022-11-09T05:48:31.183Z,1.90
2022-11-09T05:51:05.468Z,2.30
2022-11-09T05:53:33.052Z,2.10
2022-11-09T05:56:08.962Z,1.55
2022-11-09T05:58:38.799Z,1.63
2022-11-09T06:01:07.278Z,2.28
2022-11-09T06:03:34.573Z,2.72
2022-11-09T06:06:08.648Z,2.42
2022-11-09T06:08:37.380Z,2.53
2022-11-09T06:11:06.928Z,2.38
2022-11-09T06:13:34.604Z,3.20
2022-11-09T06:16:03.517Z,2.08
2022-11-09T06:18:31.746Z,2.85
2022-11-09T06:21:01.108Z,2.40
2022-11-09T06:23:29.401Z,3.35
2022-11-09T06:26:06.471Z,2.30
2022-11-09T06:28:34.660Z,2.80
2022-11-09T06:31:05.390Z,2.72
2022-11-09T06:36:00.867Z,2.80
2022-11-09T06:38:28.572Z,2.85
2022-11-09T06:40:57.148Z,3.80
2022-11-09T06:43:24.743Z,3.10
2022-11-09T06:45:52.654Z,3.42
2022-11-09T06:48:20.341Z,2.90
2022-11-09T06:50:47.661Z,3.70
2022-11-09T06:53:16.898Z,3.45
2022-11-09T06:55:50.189Z,3.58
2022-11-09T06:58:19.759Z,3.60
2022-11-09T07:00:47.286Z,3.33
2022-11-09T07:03:15.662Z,3.35
2022-11-09T07:05:44.089Z,3.38
2022-11-09T07:08:11.912Z,3.33
2022-11-09T07:10:39.434Z,3.10
2022-11-09T07:13:07.061Z,8.80
2022-11-09T07:15:35.009Z,13.30
2022-11-09T07:18:03.815Z,6.85
2022-11-09T07:20:31.543Z,5.03
2022-11-09T07:22:58.807Z,8.50
2022-11-09T07:25:27.385Z,6.43
2022-11-09T07:27:54.813Z,6.40
2022-11-09T07:30:22.184Z,19.75
2022-11-09T07:35:37.093Z,4.40
2022-11-09T07:38:04.457Z,3.72
2022-11-09T07:40:31.802Z,3.03
2022-11-09T07:43:04.001Z,3.45
2022-11-09T07:45:35.522Z,3.45
2022-11-09T07:48:05.835Z,3.55
2022-11-09T07:50:35.434Z,3.72
2022-11-09T07:53:03.594Z,3.30
2022-11-09T07:55:31.173Z,2.83
2022-11-09T07:57:59.994Z,3.15
2022-11-09T08:00:29.150Z,15.73
2022-11-09T08:02:56.517Z,8.95
2022-11-09T08:05:24.108Z,3.50
2022-11-09T08:07:58.800Z,3.47
2022-11-09T08:10:27.038Z,3.15
2022-11-09T08:12:59.194Z,2.92
2022-11-09T08:15:26.833Z,4.43
2022-11-09T08:17:54.374Z,3.45
2022-11-09T08:20:21.715Z,3.30
2022-11-09T08:22:48.958Z,3.75
2022-11-09T08:25:16.504Z,9.27
2022-11-09T08:27:43.774Z,9.27
2022-11-09T08:30:16.463Z,4.32
2022-11-09T08:32:44.532Z,4.03
2022-11-09T08:35:17.412Z,3.78
2022-11-09T08:37:45.510Z,3.53
2022-11-09T08:40:13.539Z,3.45
2022-11-09T08:42:40.835Z,3.92
2022-11-09T08:45:08.650Z,3.95
2022-11-09T08:47:36.132Z,4.60
2022-11-09T08:50:06.431Z,4.25
2022-11-09T08:52:34.127Z,4.18
2022-11-09T08:55:01.511Z,3.38
2022-11-09T08:57:29.950Z,3.47
2022-11-09T08:59:57.208Z,3.53
2022-11-09T09:02:24.547Z,3.90
2022-11-09T09:04:51.813Z,3.15
2022-11-09T09:07:19.170Z,3.83
2022-11-09T09:09:46.448Z,3.20
2022-11-09T09:12:13.760Z,3.22
2022-11-09T09:14:40.978Z,3.03
2022-11-09T09:17:08.213Z,3.65
2022-11-09T09:19:35.448Z,4.10
2022-11-09T09:22:06.094Z,2.83
2022-11-09T09:24:36.376Z,2.85
2022-11-09T09:27:04.044Z,2.90
2022-11-09T09:29:31.566Z,3.35
2022-11-09T09:31:58.840Z,3.08
2022-11-09T09:34:26.176Z,3.45
2022-11-09T09:36:53.873Z,4.15
2022-11-09T09:39:21.665Z,6.05
2022-11-09T09:41:53.422Z,4.63
2022-11-09T09:44:48.523Z,9.48
2022-11-09T09:47:22.644Z,12.55
2022-11-09T09:49:55.725Z,6.65
2022-11-09T09:53:10.477Z,4.38
2022-11-09T09:56:11.809Z,3.72
2022-11-09T09:58:46.031Z,3.35
2022-11-09T10:01:20.175Z,3.83
2022-11-09T10:03:48.554Z,3.35
2022-11-09T10:06:46.488Z,4.13
2022-11-09T10:09:24.014Z,3.50
2022-11-09T10:12:01.864Z,3.05
2022-11-09T10:14:51.240Z,4.90
2022-11-09T10:17:39.647Z,2.90
2022-11-09T10:20:34.092Z,3.08
2022-11-09T10:23:16.704Z,3.22
2022-11-09T10:29:09.107Z,3.22
2022-11-09T10:31:32.905Z,2.88
2022-11-09T10:34:04.634Z,3.38
2022-11-09T10:36:45.027Z,3.20
2022-11-09T10:39:14.154Z,3.35
2022-11-09T10:41:59.948Z,2.83
2022-11-09T10:44:45.616Z,2.28
2022-11-09T10:47:31.232Z,2.90
2022-11-09T10:50:23.216Z,3.90
2022-11-09T10:53:11.032Z,2.70
2022-11-09T10:56:21.281Z,2.53
2022-11-09T10:59:46.195Z,2.67
2022-11-09T11:02:41.442Z,2.90
2022-11-09T11:05:29.265Z,3.83
2022-11-09T11:08:41.845Z,4.18
2022-11-09T11:11:35.086Z,3.15
2022-11-09T11:14:36.434Z,2.72
2022-11-09T11:20:37.416Z,3.38
2022-11-09T11:23:25.564Z,4.25
2022-11-09T11:26:23.693Z,3.10
2022-11-09T11:29:18.866Z,3.97
2022-11-09T11:32:09.442Z,3.40
2022-11-09T11:35:02.719Z,4.18
2022-11-09T11:38:04.630Z,3.47
2022-11-09T11:41:14.796Z,5.35
2022-11-09T11:44:25.237Z,6.65
2022-11-09T11:47:25.983Z,5.15
2022-11-09T11:50:11.933Z,3.92
2022-11-09T11:53:03.831Z,4.03
2022-11-09T11:56:17.323Z,3.88
2022-11-09T11:59:46.277Z,3.30
2022-11-09T12:02:37.943Z,3.47
2022-11-09T12:05:30.003Z,4.22
2022-11-09T12:08:26.027Z,3.28
2022-11-09T12:11:37.017Z,4.28
2022-11-09T12:15:00.045Z,3.80
2022-11-09T12:18:03.768Z,4.28
2022-11-09T12:21:05.616Z,3.42
2022-11-09T12:24:10.442Z,2.83
2022-11-09T12:30:23.926Z,35.60
2022-11-09T12:33:43.875Z,18.60
2022-11-09T12:37:03.111Z,20.10
2022-11-09T12:39:53.864Z,9.65
2022-11-09T12:42:45.607Z,6.30
2022-11-09T12:45:36.318Z,4.90
2022-11-09T12:48:31.052Z,3.05
2022-11-09T12:51:17.266Z,3.22
2022-11-09T12:54:11.155Z,3.58
2022-11-09T12:57:00.292Z,3.17
2022-11-09T12:59:59.316Z,2.47
2022-11-09T13:02:57.197Z,2.58
2022-11-09T13:05:44.982Z,2.92
2022-11-09T13:08:31.421Z,5.93
2022-11-09T13:11:29.210Z,3.33
2022-11-09T13:14:26.077Z,3.38
2022-11-09T13:17:24.265Z,2.85
2022-11-09T13:20:53.963Z,3.58
2022-11-09T13:23:59.882Z,3.80
2022-11-09T13:26:47.251Z,2.97
2022-11-09T13:29:38.925Z,2.95
2022-11-09T13:32:30.050Z,2.55
2022-11-09T13:35:40.860Z,1.95
2022-11-09T13:38:30.456Z,2.40
2022-11-09T13:41:34.301Z,2.35
2022-11-09T13:44:26.363Z,3.33
2022-11-09T13:47:34.120Z,3.83
2022-11-09T13:50:22.948Z,4.45
2022-11-09T13:53:32.248Z,4.60
2022-11-09T13:56:35.261Z,3.43
2022-11-09T13:59:23.577Z,5.00
2022-11-09T14:02:25.242Z,4.30
2022-11-09T14:05:30.823Z,3.65
2022-11-09T14:08:25.818Z,5.50
2022-11-09T14:11:21.974Z,3.17
2022-11-09T14:14:32.812Z,2.17
2022-11-09T14:17:53.906Z,2.00
2022-11-09T14:20:46.347Z,2.20
2022-11-09T14:23:33.158Z,2.15
2022-11-09T14:26:22.653Z,1.92
2022-11-09T14:29:21.178Z,1.98
2022-11-09T14:32:21.983Z,2.38
2022-11-09T14:35:30.399Z,1.88
2022-11-09T14:38:18.338Z,2.08
2022-11-09T14:41:04.818Z,1.40
2022-11-09T14:43:51.663Z,2.40
2022-11-09T14:46:37.352Z,1.63
2022-11-09T14:49:25.493Z,2.05
2022-11-09T14:52:27.020Z,2.20
2022-11-09T14:55:14.906Z,2.00
2022-11-09T14:58:01.138Z,1.80
2022-11-09T15:01:18.385Z,2.10
2022-11-09T15:04:20.886Z,1.58
2022-11-09T15:07:19.637Z,2.00
2022-11-09T15:10:08.399Z,1.88
2022-11-09T15:12:56.866Z,1.80
2022-11-09T15:15:50.642Z,2.20
2022-11-09T15:18:42.747Z,1.60
2022-11-09T15:21:31.140Z,1.40
2022-11-09T15:24:18.576Z,2.03
2022-11-09T15:27:47.163Z,1.63
2022-11-09T15:30:45.495Z,2.08
2022-11-09T15:33:34.680Z,1.75
2022-11-09T15:36:23.121Z,2.00
2022-11-09T15:39:18.111Z,1.80
2022-11-09T15:42:04.211Z,1.60
2022-11-09T15:44:54.812Z,2.08
2022-11-09T15:47:41.104Z,1.90
2022-11-09T15:50:27.620Z,2.03
2022-11-09T15:53:14.586Z,1.23
2022-11-09T15:56:01.955Z,2.22
2022-11-09T15:58:49.263Z,2.35
2022-11-09T16:01:35.154Z,2.70
2022-11-09T16:04:20.957Z,2.85
2022-11-09T16:07:07.998Z,2.40
2022-11-09T16:09:54.108Z,2.10
2022-11-09T16:12:43.840Z,2.13
2022-11-09T16:15:32.738Z,2.38
2022-11-09T16:18:25.534Z,2.00
2022-11-09T16:21:14.372Z,1.90
2022-11-09T16:24:00.019Z,2.40
2022-11-09T16:26:46.079Z,1.98
2022-11-09T16:29:32.476Z,2.58
2022-11-09T16:32:18.388Z,2.30
2022-11-09T16:38:10.915Z,3.00
2022-11-09T16:40:56.833Z,2.42
2022-11-09T16:43:43.333Z,2.45
2022-11-09T16:46:29.490Z,2.80
2022-11-09T16:49:15.424Z,2.08
2022-11-09T16:52:01.589Z,2.78
2022-11-09T16:54:47.399Z,2.35
2022-11-09T16:57:34.289Z,2.72
2022-11-09T17:00:23.114Z,2.92
2022-11-09T17:03:09.016Z,2.38
2022-11-09T17:06:02.723Z,3.03
2022-11-09T17:08:48.774Z,2.60
2022-11-09T17:11:35.040Z,3.00
2022-11-09T17:14:20.712Z,3.45
2022-11-09T17:17:06.669Z,2.90
2022-11-09T17:19:53.028Z,3.00
2022-11-09T17:22:44.701Z,3.10
2022-11-09T17:25:31.748Z,3.63
2022-11-09T17:28:17.624Z,3.65
2022-11-09T17:31:09.107Z,3.85
2022-11-09T17:34:00.897Z,3.35
2022-11-09T17:37:06.302Z,3.97
2022-11-09T17:39:52.585Z,6.00
2022-11-09T17:42:39.914Z,4.53
2022-11-09T17:45:26.206Z,4.82
2022-11-09T17:48:12.087Z,4.70
2022-11-09T17:50:58.335Z,4.05
2022-11-09T17:53:44.776Z,4.15
2022-11-09T17:56:31.715Z,3.35
2022-11-09T17:59:17.643Z,2.83
2022-11-09T18:02:03.607Z,2.53
2022-11-09T18:04:49.224Z,3.40
2022-11-09T18:07:35.696Z,3.30
2022-11-09T18:10:21.941Z,3.13
2022-11-09T18:13:08.557Z,3.00
2022-11-09T18:15:54.630Z,3.05
2022-11-09T18:18:40.396Z,3.65
2022-11-09T18:21:28.591Z,3.53
2022-11-09T18:24:14.768Z,3.40
2022-11-09T18:27:00.770Z,3.70
2022-11-09T18:29:46.595Z,3.70
2022-11-09T18:32:32.690Z,4.20
2022-11-09T18:35:18.211Z,4.07
2022-11-09T18:38:03.967Z,4.20
2022-11-09T18:41:05.729Z,4.93
2022-11-09T18:43:52.204Z,5.38
2022-11-09T18:46:38.486Z,4.72
2022-11-09T18:49:24.361Z,4.93
2022-11-09T18:52:09.988Z,4.60
2022-11-09T18:54:56.926Z,5.75
2022-11-09T18:57:42.893Z,6.22
2022-11-09T19:00:29.220Z,7.63
2022-11-09T19:03:15.986Z,8.80
2022-11-09T19:06:17.943Z,5.57
2022-11-09T19:09:22.431Z,4.85
2022-11-09T19:12:10.459Z,4.15
2022-11-09T19:14:56.494Z,5.00
2022-11-09T19:17:42.090Z,4.35
2022-11-09T19:20:28.654Z,5.00
2022-11-09T19:23:15.083Z,5.95
2022-11-09T19:26:01.749Z,4.80
2022-11-09T19:28:47.445Z,5.20
2022-11-09T19:31:33.635Z,5.82
2022-11-09T19:34:20.808Z,4.68
2022-11-09T19:37:06.505Z,4.43
2022-11-09T19:39:52.407Z,4.20
2022-11-09T19:42:38.195Z,3.92
2022-11-09T19:45:24.175Z,3.97
2022-11-09T19:48:10.329Z,5.13
2022-11-09T19:50:56.159Z,7.82
2022-11-09T19:53:42.894Z,11.52
2022-11-09T19:56:31.236Z,11.95
2022-11-09T19:59:17.527Z,8.35
2022-11-09T20:02:03.812Z,10.73
2022-11-09T20:04:50.749Z,10.40
2022-11-09T20:07:36.798Z,14.43
2022-11-09T20:10:23.721Z,16.50
2022-11-09T20:13:09.322Z,14.45
2022-11-09T20:15:55.207Z,10.65
2022-11-09T20:18:41.221Z,8.60
2022-11-09T20:21:27.495Z,5.72
2022-11-09T20:24:14.353Z,4.60
2022-11-09T20:27:00.234Z,3.95
2022-11-09T20:29:46.015Z,3.67
2022-11-09T20:32:32.055Z,4.40
2022-11-09T20:35:18.090Z,4.15
2022-11-09T20:38:04.105Z,6.22
2022-11-09T20:41:04.983Z,7.07
2022-11-09T20:43:50.637Z,5.28
2022-11-09T20:46:37.030Z,4.60
2022-11-09T20:49:23.364Z,4.57
2022-11-09T20:52:09.755Z,5.18
2022-11-09T20:54:55.677Z,5.43
2022-11-09T20:57:41.786Z,4.63
2022-11-09T21:00:27.634Z,5.75
2022-11-09T21:03:13.321Z,5.80
2022-11-09T21:06:00.196Z,5.18
2022-11-09T21:08:51.164Z,4.63
2022-11-09T21:11:56.960Z,12.05
2022-11-09T21:14:42.847Z,15.93
2022-11-09T21:17:28.499Z,11.68
2022-11-09T21:20:14.862Z,4.28
2022-11-09T21:23:12.797Z,5.60
2022-11-09T21:26:18.357Z,5.32
2022-11-09T21:29:23.773Z,4.18
2022-11-09T21:32:11.520Z,4.78
2022-11-09T21:34:57.714Z,4.30
2022-11-09T21:37:43.843Z,4.22
2022-11-09T21:40:29.830Z,4.68
2022-11-09T21:43:16.326Z,4.82
2022-11-09T21:46:02.294Z,3.97
2022-11-09T21:48:48.075Z,3.78
2022-11-09T21:51:35.014Z,3.72
2022-11-09T21:54:21.125Z,3.28
2022-11-09T21:57:06.892Z,3.55
2022-11-09T21:59:52.903Z,3.65
2022-11-09T22:02:39.082Z,3.90
2022-11-09T22:05:25.032Z,3.60
2022-11-09T22:08:10.942Z,3.95
2022-11-09T22:11:42.648Z,9.85
2022-11-09T22:14:47.120Z,6.82
2022-11-09T22:17:33.287Z,3.95
2022-11-09T22:20:37.573Z,3.15
2022-11-09T22:23:23.665Z,11.18
2022-11-09T22:26:09.595Z,18.42
2022-11-09T22:28:56.964Z,6.10
2022-11-09T22:31:42.890Z,4.53
2022-11-09T22:34:28.987Z,4.07
2022-11-09T22:37:14.620Z,4.03
2022-11-09T22:40:00.219Z,4.40
2022-11-09T22:42:46.075Z,4.10
2022-11-09T22:45:34.958Z,5.68
2022-11-09T22:48:21.376Z,3.80
2022-11-09T22:51:08.125Z,3.88
2022-11-09T22:53:54.114Z,4.30
2022-11-09T22:56:39.667Z,4.03
2022-11-09T22:59:25.326Z,4.60
2022-11-09T23:02:11.194Z,4.22
2022-11-09T23:04:57.092Z,3.83
2022-11-09T23:07:43.112Z,4.10
2022-11-09T23:10:28.715Z,4.03
2022-11-09T23:13:18.126Z,4.10
2022-11-09T23:16:12.175Z,3.92
2022-11-09T23:18:57.955Z,4.10
2022-11-09T23:21:43.774Z,3.83
2022-11-09T23:24:47.925Z,3.85
2022-11-09T23:27:33.781Z,3.17
2022-11-09T23:30:20.397Z,3.95
2022-11-09T23:33:07.685Z,3.33
2022-11-09T23:35:53.858Z,4.03
2022-11-09T23:38:40.486Z,4.47
2022-11-09T23:41:26.080Z,4.63
2022-11-09T23:44:12.036Z,4.30
2022-11-09T23:46:57.986Z,4.07
2022-11-09T23:49:44.052Z,3.13
2022-11-09T23:52:30.055Z,3.72
2022-11-09T23:55:16.319Z,4.50
2022-11-09T23:58:02.688Z,4.10
